Time;durP1;ratioP1;P1;durP2;ratioP2;P2;SDS_P1;SDS_P2;PMS_P1;PMS_P2;Temp;Humidity;BMP_temperature;BMP_pressure;BME280_temperature;BME280_humidity;BME280_pressure;Samples;Min_cycle;Max_cycle;Signal;HPM_P1;HPM_P2
2021/08/26 00:07:47;;;;;;;7.23;6.50;;;;;;;15.59;74.52;155366.66;4951793;29;20550;-75
2021/08/26 00:10:32;;;;;;;6.80;6.10;;;;;;;15.57;74.41;155361.44;4958066;28;20807;-75
2021/08/26 00:13:18;;;;;;;6.73;5.87;;;;;;;15.54;75.40;155352.38;4974608;28;20465;-74
2021/08/26 00:16:05;;;;;;;6.23;5.23;;;;;;;15.50;75.10;155343.25;4961408;28;20501;-74
2021/08/26 00:18:50;;;;;;;7.10;5.47;;;;;;;15.49;76.65;155339.38;4974940;28;20485;-74
2021/08/26 00:21:36;;;;;;;7.00;5.67;;;;;;;15.46;76.82;155332.81;4975348;28;20477;-74
2021/08/26 00:24:21;;;;;;;7.23;5.80;;;;;;;15.39;76.11;155314.59;4974923;28;20440;-74
2021/08/26 00:27:07;;;;;;;9.00;5.80;;;;;;;15.37;78.52;155308.09;4955481;28;20794;-75
2021/08/26 00:29:52;;;;;;;7.03;6.23;;;;;;;15.30;78.33;155291.22;4957313;28;20423;-74
2021/08/26 00:32:39;;;;;;;10.47;6.63;;;;;;;15.25;78.72;155278.19;4990651;28;20468;-74
2021/08/26 00:35:24;;;;;;;6.93;6.10;;;;;;;15.19;80.21;155263.94;5002599;28;20447;-75
2021/08/26 00:38:10;;;;;;;7.73;6.30;;;;;;;15.12;79.61;155244.41;5015295;28;20488;-75
2021/08/26 00:40:59;;;;;;;7.40;6.10;;;;;;;15.05;79.33;155226.22;5016331;28;20449;-75
2021/08/26 00:43:45;;;;;;;6.77;6.07;;;;;;;14.99;79.67;155210.63;5016549;28;20447;-75
2021/08/26 00:46:31;;;;;;;5.80;5.20;;;;;;;14.92;80.18;155193.75;5016354;28;20443;-75
2021/08/26 00:49:18;;;;;;;7.53;6.20;;;;;;;14.88;79.90;155182.09;5016224;28;20483;-74
2021/08/26 00:52:04;;;;;;;6.57;5.80;;;;;;;14.86;80.32;155176.84;5016139;28;20466;-75
2021/08/26 00:54:49;;;;;;;6.50;5.50;;;;;;;14.83;80.06;155170.34;5002820;28;20472;-75
2021/08/26 00:57:35;;;;;;;7.60;6.60;;;;;;;14.81;79.65;155163.88;5019008;28;20537;-75
2021/08/26 01:00:21;;;;;;;8.70;6.77;;;;;;;14.78;79.70;155156.06;5034310;28;20439;-75
2021/08/26 01:03:10;;;;;;;6.63;6.03;;;;;;;14.74;81.63;155147.00;5035695;28;20443;-75
2021/08/26 01:05:58;;;;;;;6.63;5.93;;;;;;;14.77;79.97;155153.50;5019212;28;20485;-75
2021/08/26 01:08:37;;;;;;;6.90;6.20;;;;;;;14.79;78.63;155158.69;4978417;28;20803;-75
2021/08/26 01:11:23;;;;;;;7.00;5.77;;;;;;;14.82;78.66;155166.47;5001661;28;20475;-75
2021/08/26 01:14:11;;;;;;;7.30;6.00;;;;;;;14.85;78.87;155174.28;4996512;28;20558;-75
2021/08/26 01:16:46;;;;;;;7.27;6.30;;;;;;;14.85;78.89;155174.28;5012316;28;20452;-75
2021/08/26 01:19:32;;;;;;;7.57;6.87;;;;;;;14.85;79.77;155175.53;5035303;28;20457;-75
2021/08/26 01:22:20;;;;;;;6.13;5.33;;;;;;;14.85;78.45;155174.28;4980638;28;20531;-75
2021/08/26 01:25:07;;;;;;;6.67;5.93;;;;;;;14.84;77.83;155171.66;5004067;28;20560;-75
2021/08/26 01:27:57;;;;;;;6.83;5.70;;;;;;;14.82;79.13;155166.47;5035561;28;20468;-75
2021/08/26 01:30:43;;;;;;;8.07;6.77;;;;;;;14.78;79.15;155157.38;5034312;28;20440;-75
2021/08/26 01:33:28;;;;;;;7.07;6.10;;;;;;;14.75;80.93;155148.25;5034990;28;20449;-74
2021/08/26 01:36:14;;;;;;;8.17;5.93;;;;;;;14.71;80.39;155137.91;5035044;28;20510;-75
2021/08/26 01:39:01;;;;;;;8.07;6.40;;;;;;;14.71;79.20;155139.22;5035385;28;20975;-75
2021/08/26 01:41:47;;;;;;;6.80;6.10;;;;;;;14.76;79.41;155150.88;5035307;28;20455;-75
2021/08/26 01:44:34;;;;;;;8.37;7.17;;;;;;;14.78;79.80;155157.38;5035100;28;20912;-75
2021/08/26 01:47:19;;;;;;;6.87;6.07;;;;;;;14.82;79.31;155166.47;5000470;28;20467;-75
2021/08/26 01:50:05;;;;;;;6.90;5.67;;;;;;;14.77;79.08;155154.81;4995944;28;20784;-75
2021/08/26 01:52:50;;;;;;;6.47;5.43;;;;;;;14.77;80.65;155154.81;5018169;28;20808;-74
2021/08/26 01:55:36;;;;;;;7.40;6.50;;;;;;;14.79;79.00;155158.69;5008569;28;20456;-75
2021/08/26 01:58:21;;;;;;;6.47;5.87;;;;;;;14.78;79.34;155157.38;5034167;28;20536;-74
2021/08/26 02:01:08;;;;;;;7.70;6.30;;;;;;;14.74;79.15;155145.69;5034616;28;20437;-75
2021/08/26 02:03:53;;;;;;;7.33;6.63;;;;;;;14.76;79.45;155150.88;5035181;28;20444;-74
2021/08/26 02:06:39;;;;;;;6.67;6.00;;;;;;;14.72;79.96;155140.50;5034440;28;20497;-75
2021/08/26 02:09:24;;;;;;;11.30;6.93;;;;;;;14.66;80.31;155126.22;5034707;28;20434;-75
2021/08/26 02:12:10;;;;;;;7.10;6.40;;;;;;;14.63;80.00;155118.41;5034612;28;20520;-75
2021/08/26 02:14:55;;;;;;;7.53;6.70;;;;;;;14.58;80.30;155105.44;5034329;28;20466;-75
2021/08/26 02:17:42;;;;;;;7.50;6.80;;;;;;;14.58;81.10;155105.44;5034370;28;20435;-74
2021/08/26 02:20:28;;;;;;;7.37;6.33;;;;;;;14.56;80.23;155101.50;5033883;28;20472;-75
2021/08/26 02:23:14;;;;;;;8.63;6.93;;;;;;;14.53;81.73;155092.47;5034565;28;20448;-75
2021/08/26 02:25:59;;;;;;;8.00;6.97;;;;;;;14.48;82.30;155079.47;5033961;28;20457;-75
2021/08/26 02:28:44;;;;;;;9.40;7.13;;;;;;;14.43;82.05;155066.44;5034503;28;20840;-75
2021/08/26 02:31:30;;;;;;;9.93;6.70;;;;;;;14.41;83.75;155062.56;5034278;28;20962;-75
2021/08/26 02:34:16;;;;;;;7.13;6.40;;;;;;;14.40;81.77;155058.69;5033846;28;20603;-75
2021/08/26 02:37:02;;;;;;;8.80;7.90;;;;;;;14.37;82.45;155052.19;5014727;28;20555;-75
2021/08/26 02:39:47;;;;;;;8.37;7.57;;;;;;;14.43;82.23;155067.75;4999891;28;20465;-75
2021/08/26 02:42:33;;;;;;;9.50;7.17;;;;;;;14.45;81.63;155072.97;5033938;28;20484;-75
2021/08/26 02:45:18;;;;;;;9.13;6.70;;;;;;;14.46;82.38;155074.25;5008103;28;20465;-75
2021/08/26 02:48:04;;;;;;;7.93;6.33;;;;;;;14.40;81.37;155058.69;5014398;28;20453;-75
2021/08/26 02:50:51;;;;;;;7.80;6.80;;;;;;;14.40;82.01;155059.94;5023182;28;20491;-75
2021/08/26 02:53:36;;;;;;;7.10;6.40;;;;;;;14.40;82.79;155059.94;5033336;28;21045;-75
2021/08/26 02:56:21;;;;;;;7.37;6.20;;;;;;;14.37;81.86;155052.19;5008232;28;20488;-75
2021/08/26 02:59:07;;;;;;;7.20;6.23;;;;;;;14.42;81.93;155065.19;4993707;28;20833;-75
2021/08/26 03:01:52;;;;;;;8.13;7.23;;;;;;;14.46;83.19;155074.25;5009645;28;20465;-75
2021/08/26 03:04:39;;;;;;;10.77;7.23;;;;;;;14.46;84.21;155074.25;4991518;28;20431;-74
2021/08/26 03:07:26;;;;;;;16.73;7.20;;;;;;;14.45;80.90;155072.97;4994017;28;20651;-74
2021/08/26 03:10:11;;;;;;;8.20;7.30;;;;;;;14.47;80.51;155076.84;4994059;28;20532;-75
2021/08/26 03:12:57;;;;;;;8.90;8.00;;;;;;;14.48;80.96;155079.47;5009736;28;20553;-74
2021/08/26 03:15:42;;;;;;;9.30;6.80;;;;;;;14.45;81.10;155072.97;5010951;28;20455;-75
2021/08/26 03:18:28;;;;;;;10.60;7.63;;;;;;;14.47;81.03;155078.16;5010966;28;20439;-75
2021/08/26 03:21:14;;;;;;;9.27;6.83;;;;;;;14.46;82.24;155075.53;5010917;28;20497;-75
2021/08/26 03:24:01;;;;;;;10.43;7.20;;;;;;;14.50;81.36;155085.97;5011126;28;20808;-74
2021/08/26 03:26:47;;;;;;;11.13;6.83;;;;;;;14.48;81.45;155080.72;5011002;28;20513;-75
2021/08/26 03:29:32;;;;;;;9.00;7.70;;;;;;;14.45;83.52;155072.97;5010907;28;20803;-75
2021/08/26 03:32:17;;;;;;;8.80;6.83;;;;;;;14.48;81.83;155080.72;5011011;28;20432;-75
2021/08/26 03:35:03;;;;;;;7.50;6.70;;;;;;;14.49;81.33;155083.34;5010995;28;20454;-75
2021/08/26 03:37:49;;;;;;;8.10;7.23;;;;;;;14.53;82.05;155093.72;5011168;28;20484;-75
2021/08/26 03:40:35;;;;;;;8.13;6.50;;;;;;;14.55;83.70;155097.63;5010529;28;20556;-74
2021/08/26 03:43:21;;;;;;;10.33;7.20;;;;;;;14.53;82.20;155093.72;5013232;28;20452;-74
2021/08/26 03:46:06;;;;;;;10.23;8.10;;;;;;;14.47;83.10;155076.84;5014434;28;20526;-74
2021/08/26 03:48:51;;;;;;;9.53;8.10;;;;;;;14.45;82.86;155072.97;5020143;28;20446;-74
2021/08/26 03:51:37;;;;;;;9.87;7.50;;;;;;;14.45;84.09;155071.69;5019762;28;20496;-75
2021/08/26 03:54:22;;;;;;;9.47;6.97;;;;;;;14.44;84.06;155069.06;5004802;28;20848;-75
2021/08/26 03:57:09;;;;;;;8.50;7.67;;;;;;;14.46;83.01;155074.25;5019679;28;20417;-75
2021/08/26 03:59:54;;;;;;;9.80;7.60;;;;;;;14.46;82.19;155075.53;5018477;28;20451;-74
2021/08/26 04:02:40;;;;;;;10.20;7.90;;;;;;;14.45;81.90;155072.97;5018635;28;21068;-74
2021/08/26 04:05:25;;;;;;;8.30;7.50;;;;;;;14.39;84.34;155057.38;5018744;28;20439;-74
2021/08/26 04:08:10;;;;;;;9.43;7.33;;;;;;;14.37;82.93;155052.19;5019957;28;20804;-75
2021/08/26 04:10:56;;;;;;;8.73;7.20;;;;;;;14.33;83.07;155040.47;5019708;28;20432;-75
2021/08/26 04:13:42;;;;;;;7.70;6.80;;;;;;;14.31;82.99;155035.25;5019415;28;20461;-75
2021/08/26 04:16:28;;;;;;;8.30;7.50;;;;;;;14.30;83.17;155033.94;5019485;28;20580;-74
2021/08/26 04:19:13;;;;;;;8.10;6.33;;;;;;;14.26;84.52;155023.56;5012643;28;20483;-75
2021/08/26 04:21:59;;;;;;;8.70;7.20;;;;;;;14.25;86.00;155020.94;5012642;28;20461;-74
2021/08/26 04:24:44;;;;;;;8.97;8.10;;;;;;;14.24;84.75;155018.38;4999696;28;20419;-75
2021/08/26 04:27:30;;;;;;;8.33;7.53;;;;;;;14.24;85.66;155018.38;5019262;28;20436;-74
2021/08/26 04:30:24;;;;;;;10.70;8.33;;;;;;;14.26;84.98;155023.56;5002470;28;20492;-75
2021/08/26 04:33:09;;;;;;;9.47;7.97;;;;;;;14.31;85.08;155035.25;5018376;28;20440;-75
2021/08/26 04:35:55;;;;;;;8.90;8.00;;;;;;;14.35;86.19;155045.72;5018549;28;20441;-75
2021/08/26 04:38:40;;;;;;;9.50;8.27;;;;;;;14.31;87.92;155036.59;5019536;28;20513;-75
2021/08/26 04:41:26;;;;;;;9.70;7.47;;;;;;;14.33;85.62;155041.78;5019320;28;20437;-75
2021/08/26 04:44:11;;;;;;;9.20;8.30;;;;;;;14.35;84.88;155046.97;5003269;28;20459;-74
2021/08/26 04:46:58;;;;;;;9.40;8.50;;;;;;;14.34;85.57;155044.41;5017924;28;20471;-75
2021/08/26 04:49:43;;;;;;;10.40;8.30;;;;;;;14.33;86.30;155040.47;5019279;28;20789;-75
2021/08/26 04:52:29;;;;;;;8.67;7.87;;;;;;;14.32;84.91;155039.16;5018946;28;20787;-75
2021/08/26 04:55:14;;;;;;;10.50;8.00;;;;;;;14.35;84.75;155046.97;5019405;28;20499;-75
2021/08/26 04:58:00;;;;;;;9.50;8.50;;;;;;;14.36;85.56;155049.59;5022876;28;20467;-75
2021/08/26 05:00:45;;;;;;;11.90;9.00;;;;;;;14.39;84.81;155057.38;5035646;28;20544;-75
2021/08/26 05:03:32;;;;;;;9.43;8.33;;;;;;;14.40;86.62;155059.94;5035985;28;20786;-75
2021/08/26 05:06:17;;;;;;;13.03;8.27;;;;;;;14.43;86.40;155066.44;5035519;28;20814;-74
2021/08/26 05:09:02;;;;;;;9.20;8.00;;;;;;;14.42;85.51;155063.88;5036255;28;20452;-74
2021/08/26 05:11:48;;;;;;;9.63;7.70;;;;;;;14.43;84.94;155067.75;5035180;28;20420;-75
2021/08/26 05:14:33;;;;;;;9.73;8.83;;;;;;;14.43;86.26;155067.75;5034629;28;20413;-75
2021/08/26 05:17:19;;;;;;;9.73;8.73;;;;;;;14.45;86.07;155072.97;5035686;28;20439;-75
2021/08/26 05:20:08;;;;;;;8.40;7.60;;;;;;;14.46;85.99;155075.53;5014190;28;20737;-75
2021/08/26 05:22:57;;;;;;;8.10;7.30;;;;;;;14.48;85.41;155080.72;4973610;28;20452;-75
2021/08/26 05:25:42;;;;;;;9.47;8.43;;;;;;;14.51;85.68;155087.22;4972320;28;20821;-74
2021/08/26 05:28:28;;;;;;;8.87;7.63;;;;;;;14.53;85.47;155093.72;5002330;28;20495;-74
2021/08/26 05:31:13;;;;;;;8.57;7.03;;;;;;;14.54;84.83;155095.03;5015562;28;20923;-75
2021/08/26 05:33:59;;;;;;;9.70;8.17;;;;;;;14.54;85.26;155096.31;5014405;28;20450;-75
2021/08/26 05:36:46;;;;;;;12.37;9.50;;;;;;;14.54;86.57;155096.31;5008963;28;20509;-74
2021/08/26 05:39:31;;;;;;;12.30;8.20;;;;;;;14.52;85.26;155089.84;5011054;28;20473;-74
2021/08/26 05:42:16;;;;;;;8.70;7.37;;;;;;;14.55;86.33;155098.94;4994533;28;20800;-74
2021/08/26 05:45:01;;;;;;;9.30;7.50;;;;;;;14.55;85.04;155097.63;4995940;28;20424;-74
2021/08/26 05:47:54;;;;;;;8.83;7.90;;;;;;;14.59;86.22;155108.00;4998308;28;20483;-74
2021/08/26 05:50:39;;;;;;;11.23;8.47;;;;;;;14.60;84.03;155111.94;4995846;28;20419;-74
2021/08/26 05:53:26;;;;;;;9.10;8.07;;;;;;;14.62;83.85;155115.81;4994581;28;20436;-75
2021/08/26 05:56:28;;;;;;;11.17;8.20;;;;;;;14.62;85.82;155115.81;4972808;28;20451;-74
2021/08/26 05:59:14;;;;;;;9.20;7.47;;;;;;;14.65;87.25;155123.59;4986723;28;20553;-75
2021/08/26 06:02:00;;;;;;;9.00;8.10;;;;;;;14.63;85.83;155119.72;4971301;28;20602;-74
2021/08/26 06:05:05;;;;;;;9.13;8.13;;;;;;;14.66;87.31;155124.91;4952796;29;20457;-75
2021/08/26 06:07:51;;;;;;;9.20;8.30;;;;;;;14.66;84.96;155124.91;4949886;28;20954;-75
2021/08/26 06:10:28;;;;;;;18.90;9.30;;;;;;;14.69;86.53;155134.03;4952521;28;20464;-75
2021/08/26 06:13:13;;;;;;;8.60;7.70;;;;;;;14.68;86.01;155130.09;4953035;28;20589;-74
2021/08/26 06:15:58;;;;;;;11.93;8.17;;;;;;;14.64;85.62;155122.28;4952407;29;20529;-75
2021/08/26 06:18:43;;;;;;;10.00;9.00;;;;;;;14.69;87.32;155132.72;4953715;28;20447;-74
2021/08/26 06:21:29;;;;;;;9.47;8.53;;;;;;;14.67;85.98;155127.53;4950374;29;20499;-74
2021/08/26 06:24:14;;;;;;;9.70;8.70;;;;;;;14.70;86.32;155136.59;4953471;29;20978;-74
2021/08/26 06:27:02;;;;;;;13.80;11.07;;;;;;;14.68;85.98;155131.41;4937472;28;20472;-74
2021/08/26 06:29:47;;;;;;;12.13;10.93;;;;;;;14.66;86.17;155126.22;4953403;29;20441;-74
2021/08/26 06:32:32;;;;;;;12.93;11.23;;;;;;;14.66;86.77;155124.91;4953498;28;20449;-74
2021/08/26 06:35:17;;;;;;;11.80;9.90;;;;;;;14.65;86.57;155123.59;4966178;28;20441;-74
2021/08/26 06:38:03;;;;;;;10.60;9.50;;;;;;;14.69;87.16;155132.72;5014291;28;20903;-73
2021/08/26 06:40:48;;;;;;;14.33;11.00;;;;;;;14.70;87.03;155136.59;5000947;28;20478;-73
2021/08/26 06:43:35;;;;;;;12.97;11.50;;;;;;;14.68;87.20;155131.41;4994402;28;20433;-74
2021/08/26 06:46:20;;;;;;;12.17;10.63;;;;;;;14.71;87.46;155137.91;4994676;28;20979;-73
2021/08/26 06:49:05;;;;;;;14.23;11.17;;;;;;;14.72;89.57;155141.78;4993580;28;20527;-75
2021/08/26 06:51:41;;;;;;;11.43;10.23;;;;;;;14.70;86.91;155135.28;5007734;28;20451;-75
2021/08/26 06:54:16;;;;;;;14.10;9.70;;;;;;;14.71;87.19;155137.91;4996921;28;20805;-75
2021/08/26 06:57:02;;;;;;;12.80;11.00;;;;;;;14.71;86.86;155137.91;4993951;28;20424;-75
2021/08/26 06:59:49;;;;;;;11.30;10.10;;;;;;;14.71;88.33;155139.22;4996466;28;20955;-75
2021/08/26 07:02:34;;;;;;;11.80;10.60;;;;;;;14.73;88.75;155144.38;4993588;28;20503;-74
2021/08/26 07:05:19;;;;;;;10.47;9.40;;;;;;;14.73;87.99;155143.09;4993409;28;20534;-75
2021/08/26 07:08:05;;;;;;;11.37;9.53;;;;;;;14.72;89.85;155140.50;4999857;28;20471;-75
2021/08/26 07:10:51;;;;;;;12.63;9.80;;;;;;;14.68;88.28;155131.41;4994351;28;20485;-75
2021/08/26 07:13:36;;;;;;;10.70;9.67;;;;;;;14.71;87.84;155139.22;4994360;28;20439;-75
2021/08/26 07:16:13;;;;;;;10.10;9.13;;;;;;;14.74;88.23;155147.00;4998365;28;20470;-74
2021/08/26 07:18:58;;;;;;;13.00;11.00;;;;;;;14.76;88.33;155152.19;4994779;28;20475;-74
2021/08/26 07:21:34;;;;;;;12.50;11.17;;;;;;;14.77;89.53;155154.81;4978914;28;20470;-74
2021/08/26 07:24:19;;;;;;;11.90;10.57;;;;;;;14.74;88.66;155147.00;4993660;28;20684;-75
2021/08/26 07:27:15;;;;;;;15.13;10.83;;;;;;;14.75;89.30;155149.56;4993761;28;20466;-75
2021/08/26 07:30:00;;;;;;;14.03;12.47;;;;;;;14.79;89.46;155158.69;4993900;28;20557;-74
2021/08/26 07:32:47;;;;;;;13.03;11.73;;;;;;;14.78;88.37;155156.06;4996028;28;20541;-75
2021/08/26 07:35:33;;;;;;;14.00;11.13;;;;;;;14.80;89.51;155162.56;4993913;28;20532;-75
2021/08/26 07:38:18;;;;;;;13.40;11.00;;;;;;;14.85;88.72;155174.28;4994045;28;20506;-74
2021/08/26 07:41:04;;;;;;;12.60;11.40;;;;;;;14.85;89.78;155174.28;4993715;28;20467;-74
2021/08/26 07:43:49;;;;;;;14.97;12.10;;;;;;;14.91;90.47;155189.84;4993736;28;20570;-74
2021/08/26 07:46:34;;;;;;;13.03;11.63;;;;;;;14.94;89.29;155198.94;4995484;28;20515;-74
2021/08/26 07:49:21;;;;;;;13.80;11.60;;;;;;;15.02;88.15;155218.44;4993656;28;20422;-75
2021/08/26 07:52:07;;;;;;;13.90;10.60;;;;;;;15.08;88.32;155234.03;4993649;28;20502;-75
2021/08/26 07:54:52;;;;;;;12.63;11.40;;;;;;;15.10;88.28;155239.22;4993687;28;20443;-75
2021/08/26 07:57:37;;;;;;;13.53;10.70;;;;;;;15.11;89.13;155243.16;4993344;28;20867;-75
2021/08/26 08:00:23;;;;;;;14.50;11.30;;;;;;;15.11;86.95;155241.84;4993588;28;20513;-74
2021/08/26 08:03:08;;;;;;;10.57;9.43;;;;;;;15.12;87.01;155244.41;4993290;28;20520;-75
2021/08/26 08:05:55;;;;;;;11.13;9.97;;;;;;;15.14;87.74;155250.91;4996594;28;20464;-75
2021/08/26 08:08:40;;;;;;;12.40;9.77;;;;;;;15.16;86.91;155254.81;4993744;28;20464;-75
2021/08/26 08:11:26;;;;;;;11.83;10.43;;;;;;;15.19;87.40;155262.63;4992200;28;20409;-75
2021/08/26 08:14:11;;;;;;;11.47;9.60;;;;;;;15.17;86.30;155258.72;4993088;28;20535;-75
2021/08/26 08:16:57;;;;;;;10.80;9.80;;;;;;;15.20;86.54;155266.50;4992578;28;20765;-75
2021/08/26 08:19:42;;;;;;;12.80;9.57;;;;;;;15.28;86.40;155286.00;4996556;28;20466;-74
2021/08/26 08:22:29;;;;;;;10.80;9.80;;;;;;;15.34;87.83;155300.28;4996350;28;20487;-75
2021/08/26 08:25:16;;;;;;;12.63;10.33;;;;;;;15.33;86.10;155297.72;4968197;28;20890;-75
2021/08/26 08:27:53;;;;;;;14.03;9.73;;;;;;;15.38;88.32;155311.97;4954054;28;20526;-75
2021/08/26 08:30:31;;;;;;;11.20;10.00;;;;;;;15.37;89.43;155309.41;4936891;28;20456;-75
2021/08/26 08:33:06;;;;;;;12.87;10.87;;;;;;;15.40;93.48;155317.22;4972443;28;20500;-74
2021/08/26 08:35:52;;;;;;;14.80;11.43;;;;;;;15.35;92.11;155302.91;4972218;28;20544;-74
2021/08/26 08:38:38;;;;;;;12.43;10.90;;;;;;;15.38;94.03;155310.72;4975194;28;20513;-74
2021/08/26 08:41:23;;;;;;;13.23;11.03;;;;;;;15.31;94.78;155292.50;4975081;28;20600;-74
2021/08/26 08:44:08;;;;;;;14.70;12.60;;;;;;;15.14;95.08;155250.91;4974734;28;20460;-74
2021/08/26 08:46:57;;;;;;;13.97;12.47;;;;;;;15.15;97.94;155253.53;4966954;28;20472;-74
2021/08/26 08:49:45;;;;;;;14.13;12.63;;;;;;;15.12;98.90;155245.72;4955434;29;20540;-74
2021/08/26 08:52:36;;;;;;;15.90;14.30;;;;;;;15.17;100.00;155258.72;4953293;28;20573;-74
2021/08/26 08:55:22;;;;;;;14.60;13.10;;;;;;;15.29;100.00;155287.31;4971368;28;20962;-74
2021/08/26 08:58:07;;;;;;;16.73;14.87;;;;;;;15.27;100.00;155282.13;4996242;28;20471;-74
2021/08/26 09:00:53;;;;;;;17.17;14.10;;;;;;;15.22;100.00;155270.44;4998737;28;20467;-74
2021/08/26 09:03:39;;;;;;;15.70;14.00;;;;;;;15.25;100.00;155278.19;4996548;28;20591;-74
2021/08/26 09:06:38;;;;;;;23.73;15.33;;;;;;;15.30;100.00;155291.22;4998697;28;20981;-74
2021/08/26 09:09:24;;;;;;;15.47;13.83;;;;;;;15.26;100.00;155280.81;4996251;28;20420;-74
2021/08/26 09:12:11;;;;;;;17.43;15.70;;;;;;;15.36;100.00;155306.78;4996458;28;20472;-74
2021/08/26 09:15:08;;;;;;;15.50;14.00;;;;;;;15.42;100.00;155322.41;4995269;28;20423;-74
2021/08/26 09:18:12;;;;;;;18.10;14.70;;;;;;;15.47;100.00;155335.44;4996344;28;20452;-74
2021/08/26 09:21:00;;;;;;;17.40;15.50;;;;;;;15.53;100.00;155351.06;4996238;28;20468;-74
2021/08/26 09:23:53;;;;;;;18.47;15.03;;;;;;;15.48;100.00;155338.06;4995773;28;20443;-74
2021/08/26 09:26:41;;;;;;;15.90;14.30;;;;;;;15.41;100.00;155318.53;4996350;28;20416;-74
2021/08/26 09:29:27;;;;;;;18.40;15.07;;;;;;;15.40;100.00;155317.22;4999115;28;20457;-74
2021/08/26 09:32:15;;;;;;;15.57;14.00;;;;;;;15.39;100.00;155314.59;4995780;28;20467;-74
2021/08/26 09:35:10;;;;;;;16.73;14.80;;;;;;;15.51;100.00;155344.56;4996005;28;20661;-74
2021/08/26 09:38:06;;;;;;;16.47;14.60;;;;;;;15.57;100.00;155361.44;5008935;28;20475;-74
2021/08/26 09:40:52;;;;;;;16.13;14.37;;;;;;;15.56;100.00;155358.84;5012782;28;20571;-74
2021/08/26 09:43:37;;;;;;;16.80;15.10;;;;;;;15.57;100.00;155361.44;4998045;28;20901;-74
2021/08/26 09:46:30;;;;;;;17.43;15.60;;;;;;;15.64;100.00;155379.66;4998911;28;20427;-74
2021/08/26 09:49:17;;;;;;;15.40;13.90;;;;;;;15.67;100.00;155387.41;5012515;28;20574;-74
2021/08/26 09:52:07;;;;;;;13.97;12.37;;;;;;;15.70;100.00;155393.97;5012658;28;20416;-75
2021/08/26 09:54:54;;;;;;;14.00;12.13;;;;;;;15.59;100.00;155365.34;5007237;28;20480;-74
2021/08/26 09:57:39;;;;;;;11.67;10.47;;;;;;;15.58;100.00;155362.75;4998009;28;20491;-74
2021/08/26 10:00:29;;;;;;;11.67;10.57;;;;;;;15.61;100.00;155371.84;4994670;28;20504;-74
2021/08/26 10:03:16;;;;;;;12.00;10.73;;;;;;;15.60;100.00;155369.22;4994200;28;20453;-74
2021/08/26 10:06:02;;;;;;;9.90;8.90;;;;;;;15.60;100.00;155367.91;4995690;28;20425;-74
2021/08/26 10:08:50;;;;;;;10.57;9.07;;;;;;;15.63;100.00;155377.03;4995565;28;20533;-74
2021/08/26 10:11:35;;;;;;;9.20;8.30;;;;;;;15.67;100.00;155386.16;4995587;28;20569;-74
2021/08/26 10:14:21;;;;;;;7.70;7.00;;;;;;;15.59;100.00;155366.66;4995268;28;20425;-74
2021/08/26 10:17:09;;;;;;;8.50;7.70;;;;;;;15.49;100.00;155339.38;4994179;28;20420;-74
2021/08/26 10:19:56;;;;;;;7.60;6.90;;;;;;;15.42;100.00;155322.41;4995136;28;20551;-74
2021/08/26 10:22:41;;;;;;;7.67;6.97;;;;;;;15.32;100.00;155296.41;4997733;28;20499;-74
2021/08/26 10:25:27;;;;;;;6.93;6.30;;;;;;;15.24;100.00;155275.63;4994799;28;20762;-74
2021/08/26 10:28:13;;;;;;;6.40;5.60;;;;;;;15.15;100.00;155252.22;4993744;28;20452;-75
2021/08/26 10:30:58;;;;;;;6.70;6.10;;;;;;;14.99;100.00;155211.94;4996976;28;20478;-74
2021/08/26 10:33:45;;;;;;;6.40;5.27;;;;;;;15.10;100.00;155239.22;4934038;29;20989;-74
2021/08/26 10:36:33;;;;;;;5.70;5.10;;;;;;;15.03;100.00;155222.34;4934403;29;20465;-74
2021/08/26 10:39:31;;;;;;;5.77;5.27;;;;;;;14.98;100.00;155209.38;4934233;29;20860;-74
2021/08/26 10:42:44;;;;;;;5.40;4.90;;;;;;;15.15;100.00;155253.53;4936253;29;20505;-74
2021/08/26 10:45:35;;;;;;;5.80;5.30;;;;;;;15.43;100.00;155323.72;4953236;29;20942;-74
2021/08/26 10:48:22;;;;;;;5.80;5.30;;;;;;;15.38;100.00;155310.72;4953388;29;20448;-74
2021/08/26 10:51:12;;;;;;;5.40;4.90;;;;;;;15.56;100.00;155358.84;4953189;29;20513;-74
2021/08/26 10:54:28;;;;;;;4.60;4.20;;;;;;;15.72;100.00;155400.47;4953477;29;20482;-74
2021/08/26 10:57:30;;;;;;;5.63;5.13;;;;;;;15.84;100.00;155431.63;4949308;28;20558;-75
2021/08/26 11:00:42;;;;;;;5.47;4.97;;;;;;;15.89;100.00;155442.00;4953209;29;20477;-74
2021/08/26 11:03:50;;;;;;;5.37;4.87;;;;;;;16.01;100.00;155474.56;4927075;28;20579;-74
2021/08/26 11:06:42;;;;;;;5.43;5.03;;;;;;;15.98;100.00;155466.75;4997015;28;20483;-74
2021/08/26 11:09:34;;;;;;;6.10;4.60;;;;;;;16.21;100.00;155525.25;4993364;28;20480;-75
2021/08/26 11:12:25;;;;;;;5.93;5.33;;;;;;;16.34;100.00;155560.34;4999197;28;20543;-74
2021/08/26 11:15:25;;;;;;;4.90;4.40;;;;;;;16.63;100.00;155634.53;5013810;28;20428;-75
2021/08/26 11:18:28;;;;;;;5.67;4.90;;;;;;;16.73;99.20;155660.53;4997423;28;20444;-74
2021/08/26 11:21:13;;;;;;;6.77;5.13;;;;;;;16.76;98.18;155667.09;5013859;28;20460;-74
2021/08/26 11:23:59;;;;;;;5.80;5.17;;;;;;;16.94;98.90;155715.19;5002162;28;20474;-74
2021/08/26 11:26:46;;;;;;;5.50;4.97;;;;;;;16.98;94.86;155725.63;4994027;28;20777;-75
2021/08/26 11:29:32;;;;;;;7.17;5.20;;;;;;;17.07;94.90;155746.44;4993062;28;20496;-75
2021/08/26 11:32:20;;;;;;;4.93;3.77;;;;;;;17.15;91.42;155767.28;4996488;28;20908;-74
2021/08/26 11:35:06;;;;;;;5.10;3.87;;;;;;;17.20;90.87;155781.59;4993907;28;20484;-75
2021/08/26 11:37:53;;;;;;;7.70;4.20;;;;;;;17.17;86.90;155772.47;4994111;28;20573;-75
2021/08/26 11:40:39;;;;;;;7.27;5.80;;;;;;;17.04;82.82;155741.25;4993866;28;20422;-74
2021/08/26 11:43:25;;;;;;;6.63;5.33;;;;;;;16.96;82.54;155720.44;4993845;28;20436;-75
2021/08/26 11:46:13;;;;;;;8.30;5.80;;;;;;;16.90;86.55;155704.81;4993757;28;20422;-74
2021/08/26 11:48:58;;;;;;;6.60;5.00;;;;;;;17.05;86.74;155743.81;4993061;28;20441;-74
2021/08/26 11:51:34;;;;;;;6.20;5.13;;;;;;;16.92;82.46;155710.00;4994710;28;20448;-74
2021/08/26 11:54:21;;;;;;;9.30;6.17;;;;;;;16.92;84.81;155710.00;5013223;28;20416;-74
2021/08/26 11:57:09;;;;;;;6.53;5.37;;;;;;;16.90;84.80;155704.81;5013514;28;20801;-74
2021/08/26 11:59:55;;;;;;;6.53;4.80;;;;;;;16.91;84.81;155706.13;5013245;28;20774;-74
2021/08/26 12:02:41;;;;;;;7.03;5.67;;;;;;;16.93;86.14;155712.63;5013022;28;20550;-74
2021/08/26 12:05:28;;;;;;;9.13;5.90;;;;;;;16.75;83.05;155665.78;5013405;28;20432;-74
2021/08/26 12:08:13;;;;;;;5.93;5.27;;;;;;;16.58;81.68;155621.53;5015431;28;20954;-74
2021/08/26 12:10:59;;;;;;;6.47;4.70;;;;;;;16.54;86.82;155611.16;5017144;28;20408;-74
2021/08/26 12:13:44;;;;;;;8.27;5.73;;;;;;;16.48;86.01;155594.16;5017249;28;20526;-75
2021/08/26 12:16:31;;;;;;;7.07;5.80;;;;;;;16.37;82.95;155566.84;5003617;28;20551;-74
2021/08/26 12:19:16;;;;;;;6.40;5.57;;;;;;;16.44;86.04;155585.09;4997636;28;20517;-74
2021/08/26 12:22:02;;;;;;;8.17;6.10;;;;;;;16.49;86.54;155596.78;4999025;28;20995;-74
2021/08/26 12:24:53;;;;;;;9.67;6.20;;;;;;;16.64;87.08;155637.16;4997357;28;20424;-74
2021/08/26 12:27:38;;;;;;;6.67;5.30;;;;;;;16.59;87.58;155624.16;4996096;28;20445;-74
2021/08/26 12:30:41;;;;;;;7.90;6.53;;;;;;;16.76;87.26;155667.09;5000084;28;20476;-75
2021/08/26 12:33:28;;;;;;;6.50;5.60;;;;;;;16.76;84.83;155667.09;4999236;28;20519;-74
2021/08/26 12:36:04;;;;;;;10.83;6.27;;;;;;;16.76;84.60;155667.09;4997637;28;20812;-74
2021/08/26 12:38:50;;;;;;;6.63;5.67;;;;;;;16.83;88.16;155686.59;5016226;28;20519;-75
2021/08/26 12:41:35;;;;;;;6.00;5.30;;;;;;;16.96;83.15;155720.44;5015646;28;20994;-74
2021/08/26 12:44:28;;;;;;;6.20;5.23;;;;;;;17.09;86.29;155751.63;5016587;28;20424;-74
2021/08/26 12:47:13;;;;;;;7.37;5.40;;;;;;;17.09;82.84;155752.94;5001635;28;20472;-75
2021/08/26 12:50:00;;;;;;;6.53;5.43;;;;;;;17.23;83.39;155788.09;5011605;28;21010;-74
2021/08/26 12:52:46;;;;;;;6.47;5.17;;;;;;;17.22;83.53;155785.47;4996849;28;20939;-75
2021/08/26 12:55:31;;;;;;;6.60;5.10;;;;;;;17.21;81.34;155782.91;4995753;28;20414;-74